sensor_id;sensor_type;location;lat;lon;timestamp;P1;durP1;ratioP1;P2;durP2;ratioP2
5585;SDS011;2815;54.094;12.112;2023-02-28T00:01:57;12.25;;;5.43;;
5585;SDS011;2815;54.094;12.112;2023-02-28T00:04:25;13.18;;;5.50;;
5585;SDS011;2815;54.094;12.112;2023-02-28T00:06:52;11.77;;;6.15;;
5585;SDS011;2815;54.094;12.112;2023-02-28T00:09:20;11.45;;;6.10;;
5585;SDS011;2815;54.094;12.112;2023-02-28T00:11:48;13.18;;;6.18;;
5585;SDS011;2815;54.094;12.112;2023-02-28T00:14:16;13.07;;;5.68;;
5585;SDS011;2815;54.094;12.112;2023-02-28T00:16:45;15.15;;;6.05;;
5585;SDS011;2815;54.094;12.112;2023-02-28T00:19:13;18.85;;;6.07;;
5585;SDS011;2815;54.094;12.112;2023-02-28T00:21:41;13.18;;;6.00;;
5585;SDS011;2815;54.094;12.112;2023-02-28T00:24:09;14.07;;;6.30;;
5585;SDS011;2815;54.094;12.112;2023-02-28T00:26:37;14.55;;;6.10;;
5585;SDS011;2815;54.094;12.112;2023-02-28T00:29:05;16.52;;;6.13;;
5585;SDS011;2815;54.094;12.112;2023-02-28T00:31:33;12.25;;;5.78;;
5585;SDS011;2815;54.094;12.112;2023-02-28T00:34:04;12.18;;;5.60;;
5585;SDS011;2815;54.094;12.112;2023-02-28T00:36:32;13.30;;;5.50;;
5585;SDS011;2815;54.094;12.112;2023-02-28T00:39:03;14.23;;;5.93;;
5585;SDS011;2815;54.094;12.112;2023-02-28T00:41:31;14.75;;;6.43;;
5585;SDS011;2815;54.094;12.112;2023-02-28T00:43:59;11.80;;;5.57;;
5585;SDS011;2815;54.094;12.112;2023-02-28T00:46:27;18.20;;;6.00;;
5585;SDS011;2815;54.094;12.112;2023-02-28T00:48:57;15.70;;;5.90;;
5585;SDS011;2815;54.094;12.112;2023-02-28T00:51:26;12.63;;;5.32;;
5585;SDS011;2815;54.094;12.112;2023-02-28T00:53:57;11.00;;;5.57;;
5585;SDS011;2815;54.094;12.112;2023-02-28T00:56:25;12.60;;;5.35;;
5585;SDS011;2815;54.094;12.112;2023-02-28T00:58:53;10.82;;;4.63;;
5585;SDS011;2815;54.094;12.112;2023-02-28T01:01:22;9.68;;;4.80;;
5585;SDS011;2815;54.094;12.112;2023-02-28T01:03:50;9.32;;;4.25;;
5585;SDS011;2815;54.094;12.112;2023-02-28T01:06:19;13.40;;;5.15;;
5585;SDS011;2815;54.094;12.112;2023-02-28T01:08:49;9.68;;;4.80;;
5585;SDS011;2815;54.094;12.112;2023-02-28T01:11:17;11.32;;;4.80;;
5585;SDS011;2815;54.094;12.112;2023-02-28T01:13:46;11.77;;;4.57;;
5585;SDS011;2815;54.094;12.112;2023-02-28T01:16:14;8.57;;;4.28;;
5585;SDS011;2815;54.094;12.112;2023-02-28T01:18:42;9.52;;;4.13;;
5585;SDS011;2815;54.094;12.112;2023-02-28T01:21:12;13.70;;;4.78;;
5585;SDS011;2815;54.094;12.112;2023-02-28T01:23:41;9.40;;;4.35;;
5585;SDS011;2815;54.094;12.112;2023-02-28T01:26:12;13.80;;;4.45;;
5585;SDS011;2815;54.094;12.112;2023-02-28T01:28:41;7.85;;;4.18;;
5585;SDS011;2815;54.094;12.112;2023-02-28T01:31:10;7.78;;;4.35;;
5585;SDS011;2815;54.094;12.112;2023-02-28T01:33:38;11.30;;;5.18;;
5585;SDS011;2815;54.094;12.112;2023-02-28T01:36:08;9.57;;;4.43;;
5585;SDS011;2815;54.094;12.112;2023-02-28T01:38:37;5.93;;;3.65;;
5585;SDS011;2815;54.094;12.112;2023-02-28T01:41:05;12.30;;;5.50;;
5585;SDS011;2815;54.094;12.112;2023-02-28T01:46:22;12.35;;;5.18;;
5585;SDS011;2815;54.094;12.112;2023-02-28T01:48:51;12.30;;;4.93;;
5585;SDS011;2815;54.094;12.112;2023-02-28T01:51:21;10.43;;;5.30;;
5585;SDS011;2815;54.094;12.112;2023-02-28T01:53:52;16.53;;;5.03;;
5585;SDS011;2815;54.094;12.112;2023-02-28T01:56:24;10.38;;;4.90;;
5585;SDS011;2815;54.094;12.112;2023-02-28T01:58:56;13.02;;;5.22;;
5585;SDS011;2815;54.094;12.112;2023-02-28T02:01:25;9.38;;;4.60;;
5585;SDS011;2815;54.094;12.112;2023-02-28T02:03:56;9.52;;;4.53;;
5585;SDS011;2815;54.094;12.112;2023-02-28T02:06:27;8.75;;;4.57;;
5585;SDS011;2815;54.094;12.112;2023-02-28T02:08:57;11.07;;;4.95;;
5585;SDS011;2815;54.094;12.112;2023-02-28T02:11:25;9.23;;;4.90;;
5585;SDS011;2815;54.094;12.112;2023-02-28T02:18:37;7.47;;;4.30;;
5585;SDS011;2815;54.094;12.112;2023-02-28T02:21:13;12.93;;;4.65;;
5585;SDS011;2815;54.094;12.112;2023-02-28T02:24:01;9.02;;;4.72;;
5585;SDS011;2815;54.094;12.112;2023-02-28T02:29:39;7.45;;;4.30;;
5585;SDS011;2815;54.094;12.112;2023-02-28T02:32:40;8.73;;;4.28;;
5585;SDS011;2815;54.094;12.112;2023-02-28T02:35:20;8.77;;;5.13;;
5585;SDS011;2815;54.094;12.112;2023-02-28T02:37:54;8.85;;;4.80;;
5585;SDS011;2815;54.094;12.112;2023-02-28T02:40:29;11.18;;;5.18;;
5585;SDS011;2815;54.094;12.112;2023-02-28T02:42:58;9.93;;;4.78;;
5585;SDS011;2815;54.094;12.112;2023-02-28T02:45:31;11.70;;;4.65;;
5585;SDS011;2815;54.094;12.112;2023-02-28T02:48:03;9.38;;;4.70;;
5585;SDS011;2815;54.094;12.112;2023-02-28T02:50:36;10.32;;;5.20;;
5585;SDS011;2815;54.094;12.112;2023-02-28T02:53:06;11.15;;;5.10;;
5585;SDS011;2815;54.094;12.112;2023-02-28T02:55:36;12.23;;;5.03;;
5585;SDS011;2815;54.094;12.112;2023-02-28T02:58:08;9.68;;;4.65;;
5585;SDS011;2815;54.094;12.112;2023-02-28T03:00:39;11.02;;;4.40;;
5585;SDS011;2815;54.094;12.112;2023-02-28T03:03:10;7.32;;;3.55;;
5585;SDS011;2815;54.094;12.112;2023-02-28T03:05:41;7.68;;;4.82;;
5585;SDS011;2815;54.094;12.112;2023-02-28T03:08:10;8.57;;;4.45;;
5585;SDS011;2815;54.094;12.112;2023-02-28T03:10:39;8.73;;;4.70;;
5585;SDS011;2815;54.094;12.112;2023-02-28T03:13:15;8.30;;;4.70;;
5585;SDS011;2815;54.094;12.112;2023-02-28T03:19:11;11.27;;;4.95;;
5585;SDS011;2815;54.094;12.112;2023-02-28T03:21:50;12.65;;;5.22;;
5585;SDS011;2815;54.094;12.112;2023-02-28T03:24:27;9.38;;;4.82;;
5585;SDS011;2815;54.094;12.112;2023-02-28T03:27:03;11.95;;;5.40;;
5585;SDS011;2815;54.094;12.112;2023-02-28T03:29:35;12.68;;;5.63;;
5585;SDS011;2815;54.094;12.112;2023-02-28T03:32:08;9.40;;;5.25;;
5585;SDS011;2815;54.094;12.112;2023-02-28T03:34:41;10.63;;;5.60;;
5585;SDS011;2815;54.094;12.112;2023-02-28T03:37:13;10.98;;;5.47;;
5585;SDS011;2815;54.094;12.112;2023-02-28T03:39:44;10.68;;;6.22;;
5585;SDS011;2815;54.094;12.112;2023-02-28T03:42:16;12.73;;;5.97;;
5585;SDS011;2815;54.094;12.112;2023-02-28T03:44:46;11.20;;;5.97;;
5585;SDS011;2815;54.094;12.112;2023-02-28T03:47:17;10.95;;;5.97;;
5585;SDS011;2815;54.094;12.112;2023-02-28T03:49:50;10.32;;;5.68;;
5585;SDS011;2815;54.094;12.112;2023-02-28T03:52:24;11.52;;;4.68;;
5585;SDS011;2815;54.094;12.112;2023-02-28T03:54:56;9.10;;;5.47;;
5585;SDS011;2815;54.094;12.112;2023-02-28T03:57:32;13.20;;;5.05;;
5585;SDS011;2815;54.094;12.112;2023-02-28T04:00:03;8.23;;;5.45;;
5585;SDS011;2815;54.094;12.112;2023-02-28T04:02:38;6.28;;;4.47;;
5585;SDS011;2815;54.094;12.112;2023-02-28T04:05:06;8.70;;;5.28;;
5585;SDS011;2815;54.094;12.112;2023-02-28T04:07:36;13.68;;;5.82;;
5585;SDS011;2815;54.094;12.112;2023-02-28T04:10:04;11.65;;;6.03;;
5585;SDS011;2815;54.094;12.112;2023-02-28T04:12:33;11.52;;;6.32;;
5585;SDS011;2815;54.094;12.112;2023-02-28T04:15:01;8.75;;;5.75;;
5585;SDS011;2815;54.094;12.112;2023-02-28T04:17:29;9.95;;;4.60;;
5585;SDS011;2815;54.094;12.112;2023-02-28T04:19:57;13.15;;;5.45;;
5585;SDS011;2815;54.094;12.112;2023-02-28T04:22:25;10.90;;;5.68;;
5585;SDS011;2815;54.094;12.112;2023-02-28T04:24:54;10.05;;;5.18;;
5585;SDS011;2815;54.094;12.112;2023-02-28T04:27:22;10.07;;;5.68;;
5585;SDS011;2815;54.094;12.112;2023-02-28T04:29:50;8.93;;;5.47;;
5585;SDS011;2815;54.094;12.112;2023-02-28T04:32:18;9.23;;;5.57;;
5585;SDS011;2815;54.094;12.112;2023-02-28T04:34:46;12.70;;;6.00;;
5585;SDS011;2815;54.094;12.112;2023-02-28T04:37:14;14.60;;;6.47;;
5585;SDS011;2815;54.094;12.112;2023-02-28T04:39:42;9.38;;;6.03;;
5585;SDS011;2815;54.094;12.112;2023-02-28T04:42:12;9.40;;;6.35;;
5585;SDS011;2815;54.094;12.112;2023-02-28T04:44:41;9.50;;;6.05;;
5585;SDS011;2815;54.094;12.112;2023-02-28T04:47:08;10.50;;;5.38;;
5585;SDS011;2815;54.094;12.112;2023-02-28T04:49:36;14.88;;;6.28;;
5585;SDS011;2815;54.094;12.112;2023-02-28T04:52:04;11.30;;;6.05;;
5585;SDS011;2815;54.094;12.112;2023-02-28T04:54:34;13.02;;;6.75;;
5585;SDS011;2815;54.094;12.112;2023-02-28T04:57:01;10.77;;;6.20;;
5585;SDS011;2815;54.094;12.112;2023-02-28T04:59:32;10.77;;;6.18;;
5585;SDS011;2815;54.094;12.112;2023-02-28T05:02:00;9.88;;;5.65;;
5585;SDS011;2815;54.094;12.112;2023-02-28T05:04:33;9.50;;;6.15;;
5585;SDS011;2815;54.094;12.112;2023-02-28T05:07:01;9.95;;;6.25;;
5585;SDS011;2815;54.094;12.112;2023-02-28T05:09:30;12.77;;;6.85;;
5585;SDS011;2815;54.094;12.112;2023-02-28T05:11:59;10.38;;;6.00;;
5585;SDS011;2815;54.094;12.112;2023-02-28T05:14:27;12.60;;;6.13;;
5585;SDS011;2815;54.094;12.112;2023-02-28T05:16:56;10.45;;;6.15;;
5585;SDS011;2815;54.094;12.112;2023-02-28T05:19:24;13.13;;;6.40;;
5585;SDS011;2815;54.094;12.112;2023-02-28T05:21:52;13.65;;;6.45;;
5585;SDS011;2815;54.094;12.112;2023-02-28T05:24:21;13.07;;;6.20;;
5585;SDS011;2815;54.094;12.112;2023-02-28T05:26:50;13.68;;;7.05;;
5585;SDS011;2815;54.094;12.112;2023-02-28T05:29:19;11.25;;;6.55;;
5585;SDS011;2815;54.094;12.112;2023-02-28T05:31:47;11.43;;;7.22;;
5585;SDS011;2815;54.094;12.112;2023-02-28T05:34:17;13.50;;;6.55;;
5585;SDS011;2815;54.094;12.112;2023-02-28T05:36:45;11.93;;;6.95;;
5585;SDS011;2815;54.094;12.112;2023-02-28T05:39:13;11.35;;;6.47;;
5585;SDS011;2815;54.094;12.112;2023-02-28T05:41:41;13.25;;;6.90;;
5585;SDS011;2815;54.094;12.112;2023-02-28T05:44:09;13.48;;;6.85;;
5585;SDS011;2815;54.094;12.112;2023-02-28T05:46:38;9.95;;;6.72;;
5585;SDS011;2815;54.094;12.112;2023-02-28T05:49:06;11.10;;;6.80;;
5585;SDS011;2815;54.094;12.112;2023-02-28T05:51:36;13.60;;;6.70;;
5585;SDS011;2815;54.094;12.112;2023-02-28T05:54:06;11.88;;;6.38;;
5585;SDS011;2815;54.094;12.112;2023-02-28T05:56:34;17.13;;;6.60;;
5585;SDS011;2815;54.094;12.112;2023-02-28T05:59:05;15.35;;;7.90;;
5585;SDS011;2815;54.094;12.112;2023-02-28T06:01:34;11.05;;;6.43;;
5585;SDS011;2815;54.094;12.112;2023-02-28T06:04:03;14.57;;;6.65;;
5585;SDS011;2815;54.094;12.112;2023-02-28T06:06:33;11.48;;;6.20;;
5585;SDS011;2815;54.094;12.112;2023-02-28T06:09:04;14.23;;;7.18;;
5585;SDS011;2815;54.094;12.112;2023-02-28T06:11:32;14.48;;;7.07;;
5585;SDS011;2815;54.094;12.112;2023-02-28T06:14:00;20.27;;;7.47;;
5585;SDS011;2815;54.094;12.112;2023-02-28T06:16:29;14.35;;;7.93;;
5585;SDS011;2815;54.094;12.112;2023-02-28T06:18:58;18.58;;;7.72;;
5585;SDS011;2815;54.094;12.112;2023-02-28T06:21:27;16.02;;;7.65;;
5585;SDS011;2815;54.094;12.112;2023-02-28T06:23:56;14.35;;;7.25;;
5585;SDS011;2815;54.094;12.112;2023-02-28T06:26:26;15.18;;;7.50;;
5585;SDS011;2815;54.094;12.112;2023-02-28T06:28:54;19.50;;;7.47;;
5585;SDS011;2815;54.094;12.112;2023-02-28T06:31:22;12.98;;;7.30;;
5585;SDS011;2815;54.094;12.112;2023-02-28T06:33:52;9.57;;;6.22;;
5585;SDS011;2815;54.094;12.112;2023-02-28T06:36:20;9.38;;;6.43;;
5585;SDS011;2815;54.094;12.112;2023-02-28T06:38:48;13.15;;;8.15;;
5585;SDS011;2815;54.094;12.112;2023-02-28T06:41:21;12.18;;;8.13;;
5585;SDS011;2815;54.094;12.112;2023-02-28T06:43:51;22.30;;;8.27;;
5585;SDS011;2815;54.094;12.112;2023-02-28T06:46:19;12.60;;;7.43;;
5585;SDS011;2815;54.094;12.112;2023-02-28T06:48:47;11.95;;;7.78;;
5585;SDS011;2815;54.094;12.112;2023-02-28T06:51:16;13.82;;;7.43;;
5585;SDS011;2815;54.094;12.112;2023-02-28T06:53:46;14.20;;;7.13;;
5585;SDS011;2815;54.094;12.112;2023-02-28T06:56:15;11.27;;;6.20;;
5585;SDS011;2815;54.094;12.112;2023-02-28T06:58:45;13.43;;;7.30;;
5585;SDS011;2815;54.094;12.112;2023-02-28T07:01:15;12.65;;;7.43;;
5585;SDS011;2815;54.094;12.112;2023-02-28T07:03:43;16.20;;;8.45;;
5585;SDS011;2815;54.094;12.112;2023-02-28T07:06:12;14.52;;;8.65;;
5585;SDS011;2815;54.094;12.112;2023-02-28T07:08:39;13.57;;;7.78;;
5585;SDS011;2815;54.094;12.112;2023-02-28T07:11:07;14.98;;;8.75;;
5585;SDS011;2815;54.094;12.112;2023-02-28T07:13:35;17.67;;;8.98;;
5585;SDS011;2815;54.094;12.112;2023-02-28T07:16:05;14.95;;;8.02;;
5585;SDS011;2815;54.094;12.112;2023-02-28T07:18:36;13.23;;;8.35;;
5585;SDS011;2815;54.094;12.112;2023-02-28T07:21:05;15.93;;;8.52;;
5585;SDS011;2815;54.094;12.112;2023-02-28T07:23:34;18.88;;;9.05;;
5585;SDS011;2815;54.094;12.112;2023-02-28T07:26:04;14.18;;;8.73;;
5585;SDS011;2815;54.094;12.112;2023-02-28T07:28:34;19.58;;;10.75;;
5585;SDS011;2815;54.094;12.112;2023-02-28T07:31:05;24.70;;;10.15;;
5585;SDS011;2815;54.094;12.112;2023-02-28T07:33:33;18.98;;;11.02;;
5585;SDS011;2815;54.094;12.112;2023-02-28T07:36:03;21.73;;;10.85;;
5585;SDS011;2815;54.094;12.112;2023-02-28T07:38:33;22.02;;;11.05;;
5585;SDS011;2815;54.094;12.112;2023-02-28T07:41:01;25.08;;;11.05;;
5585;SDS011;2815;54.094;12.112;2023-02-28T07:43:31;22.20;;;11.00;;
5585;SDS011;2815;54.094;12.112;2023-02-28T07:46:01;17.70;;;11.05;;
5585;SDS011;2815;54.094;12.112;2023-02-28T07:48:29;18.35;;;11.10;;
5585;SDS011;2815;54.094;12.112;2023-02-28T07:50:58;22.35;;;11.43;;
5585;SDS011;2815;54.094;12.112;2023-02-28T07:53:28;31.20;;;11.73;;
5585;SDS011;2815;54.094;12.112;2023-02-28T07:55:56;20.63;;;10.55;;
5585;SDS011;2815;54.094;12.112;2023-02-28T07:58:25;17.55;;;10.48;;
5585;SDS011;2815;54.094;12.112;2023-02-28T08:00:54;16.77;;;9.95;;
5585;SDS011;2815;54.094;12.112;2023-02-28T08:03:22;14.23;;;8.80;;
5585;SDS011;2815;54.094;12.112;2023-02-28T08:05:51;14.75;;;8.98;;
5585;SDS011;2815;54.094;12.112;2023-02-28T08:08:19;15.00;;;8.65;;
5585;SDS011;2815;54.094;12.112;2023-02-28T08:10:49;19.33;;;8.75;;
5585;SDS011;2815;54.094;12.112;2023-02-28T08:13:16;21.50;;;9.63;;
5585;SDS011;2815;54.094;12.112;2023-02-28T08:15:44;19.85;;;9.15;;
5585;SDS011;2815;54.094;12.112;2023-02-28T08:18:13;13.57;;;7.97;;
5585;SDS011;2815;54.094;12.112;2023-02-28T08:20:41;16.80;;;7.22;;
5585;SDS011;2815;54.094;12.112;2023-02-28T08:23:10;13.77;;;7.38;;
5585;SDS011;2815;54.094;12.112;2023-02-28T08:25:38;14.60;;;7.05;;
5585;SDS011;2815;54.094;12.112;2023-02-28T08:28:08;12.80;;;6.88;;
5585;SDS011;2815;54.094;12.112;2023-02-28T08:30:36;17.90;;;6.68;;
5585;SDS011;2815;54.094;12.112;2023-02-28T08:33:04;11.23;;;6.72;;
5585;SDS011;2815;54.094;12.112;2023-02-28T08:35:34;12.10;;;6.80;;
5585;SDS011;2815;54.094;12.112;2023-02-28T08:38:03;10.18;;;6.80;;
5585;SDS011;2815;54.094;12.112;2023-02-28T08:40:31;9.55;;;5.90;;
5585;SDS011;2815;54.094;12.112;2023-02-28T08:42:59;12.50;;;5.93;;
5585;SDS011;2815;54.094;12.112;2023-02-28T08:45:28;14.10;;;7.00;;
5585;SDS011;2815;54.094;12.112;2023-02-28T08:47:56;11.27;;;6.43;;
5585;SDS011;2815;54.094;12.112;2023-02-28T08:50:24;14.38;;;6.70;;
5585;SDS011;2815;54.094;12.112;2023-02-28T08:52:52;14.40;;;5.90;;
5585;SDS011;2815;54.094;12.112;2023-02-28T08:55:19;15.60;;;6.07;;
5585;SDS011;2815;54.094;12.112;2023-02-28T08:57:47;10.25;;;5.78;;
5585;SDS011;2815;54.094;12.112;2023-02-28T09:00:16;15.50;;;5.60;;
5585;SDS011;2815;54.094;12.112;2023-02-28T09:02:45;11.63;;;5.60;;
5585;SDS011;2815;54.094;12.112;2023-02-28T09:05:13;10.98;;;5.57;;
5585;SDS011;2815;54.094;12.112;2023-02-28T09:07:41;12.60;;;5.80;;
5585;SDS011;2815;54.094;12.112;2023-02-28T09:10:10;10.32;;;5.32;;
5585;SDS011;2815;54.094;12.112;2023-02-28T09:12:38;10.77;;;5.45;;
5585;SDS011;2815;54.094;12.112;2023-02-28T09:15:07;17.38;;;5.43;;
5585;SDS011;2815;54.094;12.112;2023-02-28T09:17:35;20.52;;;5.63;;
5585;SDS011;2815;54.094;12.112;2023-02-28T09:20:06;8.90;;;5.28;;
5585;SDS011;2815;54.094;12.112;2023-02-28T09:22:35;9.23;;;5.20;;
5585;SDS011;2815;54.094;12.112;2023-02-28T09:25:03;8.10;;;4.88;;
5585;SDS011;2815;54.094;12.112;2023-02-28T09:27:31;10.48;;;4.50;;
5585;SDS011;2815;54.094;12.112;2023-02-28T09:29:59;9.18;;;5.00;;
5585;SDS011;2815;54.094;12.112;2023-02-28T09:32:27;8.07;;;4.63;;
5585;SDS011;2815;54.094;12.112;2023-02-28T09:34:55;7.70;;;3.92;;
5585;SDS011;2815;54.094;12.112;2023-02-28T09:37:24;9.15;;;3.85;;
5585;SDS011;2815;54.094;12.112;2023-02-28T09:39:57;9.88;;;4.45;;
5585;SDS011;2815;54.094;12.112;2023-02-28T09:42:27;8.88;;;4.40;;
5585;SDS011;2815;54.094;12.112;2023-02-28T09:44:59;11.65;;;3.63;;
5585;SDS011;2815;54.094;12.112;2023-02-28T09:47:29;6.05;;;3.38;;
5585;SDS011;2815;54.094;12.112;2023-02-28T09:50:00;7.22;;;3.28;;
5585;SDS011;2815;54.094;12.112;2023-02-28T09:52:35;7.80;;;3.10;;
5585;SDS011;2815;54.094;12.112;2023-02-28T09:55:09;4.22;;;1.65;;
5585;SDS011;2815;54.094;12.112;2023-02-28T09:57:46;8.87;;;2.40;;
5585;SDS011;2815;54.094;12.112;2023-02-28T10:00:15;6.45;;;2.35;;
5585;SDS011;2815;54.094;12.112;2023-02-28T10:02:58;2.65;;;1.20;;
5585;SDS011;2815;54.094;12.112;2023-02-28T10:05:33;5.78;;;1.63;;
5585;SDS011;2815;54.094;12.112;2023-02-28T10:08:07;6.15;;;1.63;;
5585;SDS011;2815;54.094;12.112;2023-02-28T10:10:39;7.80;;;1.58;;
5585;SDS011;2815;54.094;12.112;2023-02-28T10:13:16;6.38;;;2.20;;
5585;SDS011;2815;54.094;12.112;2023-02-28T10:15:49;9.18;;;2.28;;
5585;SDS011;2815;54.094;12.112;2023-02-28T10:18:20;5.95;;;2.33;;
5585;SDS011;2815;54.094;12.112;2023-02-28T10:20:49;6.75;;;1.95;;
5585;SDS011;2815;54.094;12.112;2023-02-28T10:23:21;4.20;;;1.67;;
5585;SDS011;2815;54.094;12.112;2023-02-28T10:25:53;4.43;;;1.80;;
5585;SDS011;2815;54.094;12.112;2023-02-28T10:28:21;7.38;;;2.15;;
5585;SDS011;2815;54.094;12.112;2023-02-28T10:30:50;4.95;;;1.67;;
5585;SDS011;2815;54.094;12.112;2023-02-28T10:33:20;5.00;;;1.70;;
5585;SDS011;2815;54.094;12.112;2023-02-28T10:35:50;5.95;;;1.70;;
5585;SDS011;2815;54.094;12.112;2023-02-28T10:38:21;2.83;;;1.38;;
5585;SDS011;2815;54.094;12.112;2023-02-28T10:40:50;3.35;;;1.40;;
5585;SDS011;2815;54.094;12.112;2023-02-28T10:43:19;8.18;;;1.50;;
5585;SDS011;2815;54.094;12.112;2023-02-28T10:45:52;3.47;;;1.33;;
5585;SDS011;2815;54.094;12.112;2023-02-28T10:48:27;3.67;;;1.20;;
5585;SDS011;2815;54.094;12.112;2023-02-28T10:50:58;1.90;;;1.10;;
5585;SDS011;2815;54.094;12.112;2023-02-28T10:53:37;7.45;;;1.30;;
5585;SDS011;2815;54.094;12.112;2023-02-28T10:56:25;6.03;;;1.45;;
5585;SDS011;2815;54.094;12.112;2023-02-28T10:58:54;2.85;;;1.15;;
5585;SDS011;2815;54.094;12.112;2023-02-28T11:01:24;5.00;;;1.50;;
5585;SDS011;2815;54.094;12.112;2023-02-28T11:09:32;8.60;;;1.45;;
5585;SDS011;2815;54.094;12.112;2023-02-28T11:12:02;4.57;;;1.20;;
5585;SDS011;2815;54.094;12.112;2023-02-28T11:14:33;3.25;;;1.38;;
5585;SDS011;2815;54.094;12.112;2023-02-28T11:17:13;4.45;;;1.02;;
5585;SDS011;2815;54.094;12.112;2023-02-28T11:19:44;3.30;;;1.17;;
5585;SDS011;2815;54.094;12.112;2023-02-28T11:22:16;3.63;;;1.50;;
5585;SDS011;2815;54.094;12.112;2023-02-28T11:24:47;3.08;;;1.23;;
5585;SDS011;2815;54.094;12.112;2023-02-28T11:27:26;3.20;;;1.17;;
5585;SDS011;2815;54.094;12.112;2023-02-28T11:30:31;4.18;;;1.70;;
5585;SDS011;2815;54.094;12.112;2023-02-28T11:33:18;3.95;;;1.30;;
5585;SDS011;2815;54.094;12.112;2023-02-28T11:35:50;7.47;;;1.40;;
5585;SDS011;2815;54.094;12.112;2023-02-28T11:38:19;3.63;;;1.40;;
5585;SDS011;2815;54.094;12.112;2023-02-28T11:40:49;2.45;;;1.10;;
5585;SDS011;2815;54.094;12.112;2023-02-28T11:43:34;3.35;;;1.25;;
5585;SDS011;2815;54.094;12.112;2023-02-28T11:46:13;6.70;;;1.95;;
5585;SDS011;2815;54.094;12.112;2023-02-28T11:48:51;5.13;;;1.27;;
5585;SDS011;2815;54.094;12.112;2023-02-28T11:51:27;3.40;;;1.05;;
5585;SDS011;2815;54.094;12.112;2023-02-28T11:56:57;5.38;;;1.38;;
5585;SDS011;2815;54.094;12.112;2023-02-28T11:59:41;7.45;;;1.45;;
5585;SDS011;2815;54.094;12.112;2023-02-28T12:02:22;7.80;;;1.60;;
5585;SDS011;2815;54.094;12.112;2023-02-28T12:04:53;3.97;;;1.40;;
5585;SDS011;2815;54.094;12.112;2023-02-28T12:07:31;5.75;;;1.50;;
5585;SDS011;2815;54.094;12.112;2023-02-28T12:10:04;3.83;;;1.10;;
5585;SDS011;2815;54.094;12.112;2023-02-28T12:12:41;6.43;;;1.70;;
5585;SDS011;2815;54.094;12.112;2023-02-28T12:20:38;8.02;;;2.00;;
5585;SDS011;2815;54.094;12.112;2023-02-28T12:23:15;3.95;;;1.75;;
5585;SDS011;2815;54.094;12.112;2023-02-28T12:25:52;3.15;;;1.50;;
5585;SDS011;2815;54.094;12.112;2023-02-28T12:28:28;5.82;;;1.38;;
5585;SDS011;2815;54.094;12.112;2023-02-28T12:31:00;3.33;;;1.33;;
5585;SDS011;2815;54.094;12.112;2023-02-28T12:33:31;5.50;;;1.45;;
5585;SDS011;2815;54.094;12.112;2023-02-28T12:36:03;2.08;;;1.15;;
5585;SDS011;2815;54.094;12.112;2023-02-28T12:38:34;7.80;;;2.00;;
5585;SDS011;2815;54.094;12.112;2023-02-28T12:41:04;2.85;;;1.50;;
5585;SDS011;2815;54.094;12.112;2023-02-28T12:43:36;7.15;;;1.60;;
5585;SDS011;2815;54.094;12.112;2023-02-28T12:46:07;4.72;;;1.20;;
5585;SDS011;2815;54.094;12.112;2023-02-28T12:48:39;7.03;;;1.70;;
5585;SDS011;2815;54.094;12.112;2023-02-28T12:51:08;4.50;;;1.48;;
5585;SDS011;2815;54.094;12.112;2023-02-28T12:53:41;7.43;;;1.60;;
5585;SDS011;2815;54.094;12.112;2023-02-28T12:56:16;7.07;;;1.50;;
5585;SDS011;2815;54.094;12.112;2023-02-28T12:58:51;5.03;;;1.30;;
5585;SDS011;2815;54.094;12.112;2023-02-28T13:01:39;7.53;;;2.05;;
5585;SDS011;2815;54.094;12.112;2023-02-28T13:07:11;5.13;;;1.10;;
5585;SDS011;2815;54.094;12.112;2023-02-28T13:09:59;4.72;;;1.02;;
5585;SDS011;2815;54.094;12.112;2023-02-28T13:12:27;3.67;;;0.95;;
5585;SDS011;2815;54.094;12.112;2023-02-28T13:15:04;4.45;;;1.20;;
5585;SDS011;2815;54.094;12.112;2023-02-28T13:17:38;3.30;;;0.90;;
5585;SDS011;2815;54.094;12.112;2023-02-28T13:20:14;4.22;;;1.30;;
5585;SDS011;2815;54.094;12.112;2023-02-28T13:22:44;6.47;;;1.52;;
5585;SDS011;2815;54.094;12.112;2023-02-28T13:34:37;2.50;;;1.50;;
5585;SDS011;2815;54.094;12.112;2023-02-28T13:43:05;1.27;;;0.60;;
5585;SDS011;2815;54.094;12.112;2023-02-28T13:45:35;2.63;;;0.85;;
5585;SDS011;2815;54.094;12.112;2023-02-28T13:48:14;2.38;;;0.80;;
5585;SDS011;2815;54.094;12.112;2023-02-28T13:50:45;2.55;;;0.70;;
5585;SDS011;2815;54.094;12.112;2023-02-28T13:56:17;1.70;;;0.82;;
5585;SDS011;2815;54.094;12.112;2023-02-28T13:58:52;2.63;;;0.93;;
5585;SDS011;2815;54.094;12.112;2023-02-28T14:01:26;2.05;;;0.60;;
5585;SDS011;2815;54.094;12.112;2023-02-28T14:04:13;1.90;;;0.60;;
5585;SDS011;2815;54.094;12.112;2023-02-28T14:06:50;4.13;;;1.00;;
5585;SDS011;2815;54.094;12.112;2023-02-28T14:09:21;2.42;;;0.70;;
5585;SDS011;2815;54.094;12.112;2023-02-28T14:11:51;3.80;;;0.70;;
5585;SDS011;2815;54.094;12.112;2023-02-28T14:17:23;1.52;;;0.55;;
5585;SDS011;2815;54.094;12.112;2023-02-28T14:19:52;1.38;;;0.52;;
5585;SDS011;2815;54.094;12.112;2023-02-28T14:22:37;1.90;;;0.70;;
5585;SDS011;2815;54.094;12.112;2023-02-28T14:25:15;1.85;;;0.80;;
5585;SDS011;2815;54.094;12.112;2023-02-28T14:27:48;1.55;;;0.70;;
5585;SDS011;2815;54.094;12.112;2023-02-28T14:33:43;2.38;;;0.82;;
5585;SDS011;2815;54.094;12.112;2023-02-28T14:36:18;1.95;;;0.75;;
5585;SDS011;2815;54.094;12.112;2023-02-28T14:38:50;1.65;;;0.70;;
5585;SDS011;2815;54.094;12.112;2023-02-28T14:41:21;1.65;;;0.70;;
5585;SDS011;2815;54.094;12.112;2023-02-28T14:43:52;1.67;;;0.98;;
5585;SDS011;2815;54.094;12.112;2023-02-28T14:46:23;1.53;;;0.70;;
5585;SDS011;2815;54.094;12.112;2023-02-28T14:48:55;2.38;;;0.73;;
5585;SDS011;2815;54.094;12.112;2023-02-28T14:51:23;1.50;;;0.63;;
5585;SDS011;2815;54.094;12.112;2023-02-28T14:53:57;1.65;;;0.70;;
5585;SDS011;2815;54.094;12.112;2023-02-28T14:56:27;2.08;;;0.60;;
5585;SDS011;2815;54.094;12.112;2023-02-28T14:58:58;1.80;;;0.68;;
5585;SDS011;2815;54.094;12.112;2023-02-28T15:01:26;1.95;;;0.75;;
5585;SDS011;2815;54.094;12.112;2023-02-28T15:03:59;2.85;;;0.90;;
5585;SDS011;2815;54.094;12.112;2023-02-28T15:06:29;3.05;;;1.13;;
5585;SDS011;2815;54.094;12.112;2023-02-28T15:09:09;5.13;;;1.45;;
5585;SDS011;2815;54.094;12.112;2023-02-28T15:11:38;2.28;;;0.93;;
5585;SDS011;2815;54.094;12.112;2023-02-28T15:14:06;4.63;;;2.75;;
5585;SDS011;2815;54.094;12.112;2023-02-28T15:16:35;2.28;;;1.30;;
5585;SDS011;2815;54.094;12.112;2023-02-28T15:19:06;2.85;;;0.85;;
5585;SDS011;2815;54.094;12.112;2023-02-28T15:21:36;2.50;;;0.95;;
5585;SDS011;2815;54.094;12.112;2023-02-28T15:24:06;6.53;;;1.20;;
5585;SDS011;2815;54.094;12.112;2023-02-28T15:29:07;4.15;;;0.80;;
5585;SDS011;2815;54.094;12.112;2023-02-28T15:34:25;2.42;;;0.80;;
5585;SDS011;2815;54.094;12.112;2023-02-28T15:40:07;2.88;;;0.98;;
5585;SDS011;2815;54.094;12.112;2023-02-28T15:42:40;2.33;;;0.63;;
5585;SDS011;2815;54.094;12.112;2023-02-28T15:45:26;1.67;;;0.70;;
5585;SDS011;2815;54.094;12.112;2023-02-28T15:47:56;1.92;;;0.70;;
5585;SDS011;2815;54.094;12.112;2023-02-28T15:50:34;1.67;;;0.85;;
5585;SDS011;2815;54.094;12.112;2023-02-28T15:53:02;3.10;;;1.00;;
5585;SDS011;2815;54.094;12.112;2023-02-28T15:55:32;1.85;;;1.00;;
5585;SDS011;2815;54.094;12.112;2023-02-28T15:58:00;3.03;;;0.88;;
5585;SDS011;2815;54.094;12.112;2023-02-28T16:00:29;0.90;;;0.60;;
5585;SDS011;2815;54.094;12.112;2023-02-28T16:02:59;2.47;;;0.60;;
5585;SDS011;2815;54.094;12.112;2023-02-28T16:05:27;0.98;;;0.50;;
5585;SDS011;2815;54.094;12.112;2023-02-28T16:07:58;1.80;;;0.60;;
5585;SDS011;2815;54.094;12.112;2023-02-28T16:10:28;6.80;;;0.70;;
5585;SDS011;2815;54.094;12.112;2023-02-28T16:12:58;1.27;;;0.60;;
5585;SDS011;2815;54.094;12.112;2023-02-28T16:15:27;2.08;;;0.60;;
5585;SDS011;2815;54.094;12.112;2023-02-28T16:17:56;3.53;;;0.70;;
5585;SDS011;2815;54.094;12.112;2023-02-28T16:20:25;4.28;;;0.85;;
5585;SDS011;2815;54.094;12.112;2023-02-28T16:22:55;4.22;;;0.70;;